Main page
METAR-TAF:

METAR-TAF

Airports :

Chongqing, China

Chongqing Jiangbei International Airport

latitude: 29-31N, longitude: 106-29E, elevation: 351 m

Current weather observation

The report was made 16 minutes ago, at 04:00 UTC
Wind 6 kt from the East/Southeast, varying between East and South/Southeast
Temperature 16°C
Humidity 82%
Pressure 1023 hPa
Visibility 10 km or more
Few clouds at a height of 3000 ft

METAR: ZUCK 230400Z 12003MPS 100V160 9999 FEW030 16/13 Q1023 NOSIG

Time: 12:16 (04:16 UTC)

Forecast

The report was made 9 hours and 12 minutes ago, at 19:04 UTC
Forecast valid from 23 at 00 UTC to 23 at 24 UTC
Wind 6 kt from the North/Northeast
Visibility: 5000 m
Scattered clouds at a height of 3000 ft
mist

TAF: ZUCK 221904Z 2300/2324 03003MPS 5000 BR SCT030 TX18/2308Z TN14/2322Z

Weather observations and forecasts of more than 4000 airports (METAR and TAF reports).

The available stations are represented by yellow and red dots on the map.

Hover mouse over dot to see the name of the station.

Then click to see weather observations and forecasts.

To change the map : click on the green buttons with a black cross to zoom in, on the green button with a dash to zoom out, or on the green arrows for adjacent maps.


METAR-TAF: